createdAt,value
2022-08-05T00:01:35.969Z,22.65
2022-08-05T00:04:05.211Z,22.63
2022-08-05T00:06:36.521Z,22.67
2022-08-05T00:09:05.235Z,22.67
2022-08-05T00:11:48.415Z,22.60
2022-08-05T00:14:17.941Z,22.59
2022-08-05T00:16:52.336Z,22.56
2022-08-05T00:19:24.979Z,22.60
2022-08-05T00:22:01.484Z,22.49
2022-08-05T00:24:30.989Z,22.52
2022-08-05T00:27:00.212Z,22.49
2022-08-05T00:29:37.767Z,22.41
2022-08-05T00:32:12.362Z,22.33
2022-08-05T00:35:04.686Z,22.30
2022-08-05T00:37:50.987Z,22.31
2022-08-05T00:40:27.943Z,22.27
2022-08-05T00:42:58.877Z,22.27
2022-08-05T00:45:37.946Z,22.26
2022-08-05T00:48:09.254Z,22.21
2022-08-05T00:50:38.865Z,22.24
2022-08-05T00:54:00.363Z,22.18
2022-08-05T00:56:07.903Z,22.19
2022-08-05T00:58:36.955Z,22.18
2022-08-05T01:01:08.703Z,22.15
2022-08-05T01:03:40.584Z,22.10
2022-08-05T01:06:14.170Z,22.05
2022-08-05T01:08:44.646Z,22.06
2022-08-05T01:11:33.520Z,22.02
2022-08-05T01:14:28.261Z,21.94
2022-08-05T01:17:03.251Z,21.95
2022-08-05T01:20:00.863Z,21.89
2022-08-05T01:22:57.180Z,21.87
2022-08-05T01:25:53.292Z,21.86
2022-08-05T01:28:24.570Z,21.86
2022-08-05T01:31:08.612Z,21.81
2022-08-05T01:33:49.139Z,21.74
2022-08-05T01:36:20.929Z,21.74
2022-08-05T01:38:50.005Z,21.75
2022-08-05T01:41:25.712Z,21.66
2022-08-05T01:43:54.754Z,21.62
2022-08-05T01:46:42.828Z,21.53
2022-08-05T01:49:24.101Z,21.56
2022-08-05T01:51:58.926Z,21.58
2022-08-05T01:54:46.349Z,21.58
2022-08-05T01:58:29.499Z,21.53
2022-08-05T02:00:13.003Z,21.47
2022-08-05T02:03:03.721Z,21.50
2022-08-05T02:05:35.940Z,21.52
2022-08-05T02:08:05.163Z,21.47
2022-08-05T02:10:36.684Z,21.40
2022-08-05T02:13:16.871Z,21.36
2022-08-05T02:16:01.657Z,21.43
2022-08-05T02:18:42.721Z,21.40
2022-08-05T02:21:15.556Z,21.36
2022-08-05T02:23:46.642Z,21.44
2022-08-05T02:26:22.180Z,21.33
2022-08-05T02:28:50.499Z,21.29
2022-08-05T02:31:26.645Z,21.29
2022-08-05T02:33:59.733Z,21.27
2022-08-05T02:36:31.655Z,21.26
2022-08-05T02:39:03.082Z,21.35
2022-08-05T02:41:43.304Z,21.32
2022-08-05T02:44:21.869Z,21.33
2022-08-05T02:46:58.652Z,21.31
2022-08-05T02:49:40.630Z,21.30
2022-08-05T02:52:13.643Z,21.29
2022-08-05T02:54:57.797Z,21.26
2022-08-05T02:58:09.459Z,21.27
2022-08-05T03:00:13.753Z,21.24
2022-08-05T03:02:43.967Z,21.25
2022-08-05T03:05:13.843Z,21.21
2022-08-05T03:08:00.435Z,21.30
2022-08-05T03:10:30.879Z,21.15
2022-08-05T03:15:28.130Z,21.13
2022-08-05T03:17:57.813Z,21.11
2022-08-05T03:20:25.640Z,21.10
2022-08-05T03:22:57.614Z,21.08
2022-08-05T03:25:32.612Z,21.09
2022-08-05T03:28:04.611Z,21.17
2022-08-05T03:30:34.526Z,21.13
2022-08-05T03:33:04.362Z,21.19
2022-08-05T03:35:40.738Z,21.16
2022-08-05T03:38:14.569Z,21.16
2022-08-05T03:40:45.287Z,21.18
2022-08-05T03:44:08.167Z,21.26
2022-08-05T03:46:05.455Z,21.25
2022-08-05T03:48:36.801Z,21.28
2022-08-05T03:52:39.201Z,21.29
2022-08-05T03:55:07.137Z,21.28
2022-08-05T03:56:58.949Z,21.34
2022-08-05T03:59:47.584Z,21.32
2022-08-05T04:02:38.594Z,21.30
2022-08-05T04:05:14.643Z,21.41
2022-08-05T04:07:58.501Z,21.37
2022-08-05T04:10:33.226Z,21.41
2022-08-05T04:13:07.767Z,21.36
2022-08-05T04:15:36.229Z,21.40
2022-08-05T04:18:06.682Z,21.43
2022-08-05T04:20:35.079Z,21.46
2022-08-05T04:23:02.659Z,21.48
2022-08-05T04:25:57.780Z,21.45
2022-08-05T04:28:30.702Z,21.52
2022-08-05T04:31:00.832Z,21.58
2022-08-05T04:34:17.343Z,21.58
2022-08-05T04:36:49.462Z,21.55
2022-08-05T04:39:04.880Z,21.61
2022-08-05T04:41:37.089Z,21.66
2022-08-05T04:44:09.407Z,21.69
2022-08-05T04:46:38.752Z,21.71
2022-08-05T04:49:14.383Z,21.75
2022-08-05T04:51:45.097Z,21.76
2022-08-05T04:54:14.818Z,21.80
2022-08-05T04:56:42.448Z,21.85
2022-08-05T04:59:22.400Z,21.88
2022-08-05T05:02:07.036Z,21.94
2022-08-05T05:04:50.547Z,22.01
2022-08-05T05:07:29.275Z,22.02
2022-08-05T05:09:57.651Z,22.07
2022-08-05T05:12:27.225Z,22.08
2022-08-05T05:14:55.278Z,22.18
2022-08-05T05:17:24.896Z,22.29
2022-08-05T05:20:12.875Z,22.42
2022-08-05T05:22:41.130Z,22.52
2022-08-05T05:25:16.867Z,22.66
2022-08-05T05:27:53.743Z,22.87
2022-08-05T05:30:29.783Z,23.10
2022-08-05T05:33:03.744Z,23.35
2022-08-05T05:35:48.088Z,23.52
2022-08-05T05:38:22.249Z,23.76
2022-08-05T05:40:55.921Z,23.94
2022-08-05T05:43:54.336Z,24.18
2022-08-05T05:46:15.784Z,24.39
2022-08-05T05:48:44.594Z,24.54
2022-08-05T05:51:25.806Z,24.70
2022-08-05T05:53:59.529Z,24.90
2022-08-05T05:56:32.432Z,24.96
2022-08-05T05:59:07.377Z,25.08
2022-08-05T06:01:38.892Z,25.10
2022-08-05T06:04:12.906Z,25.21
2022-08-05T06:06:47.318Z,25.37
2022-08-05T06:09:24.806Z,25.55
2022-08-05T06:11:59.633Z,25.71
2022-08-05T06:14:31.223Z,25.79
2022-08-05T06:17:02.078Z,25.90
2022-08-05T06:19:57.029Z,26.00
2022-08-05T06:22:33.656Z,26.17
2022-08-05T06:25:25.223Z,26.43
2022-08-05T06:28:09.521Z,26.59
2022-08-05T06:30:41.319Z,26.86
2022-08-05T06:33:09.988Z,26.90
2022-08-05T06:36:03.380Z,26.96
2022-08-05T06:38:35.587Z,27.33
2022-08-05T06:41:04.970Z,27.62
2022-08-05T06:43:58.189Z,28.00
2022-08-05T06:46:20.602Z,28.66
2022-08-05T06:48:58.755Z,29.25
2022-08-05T06:51:31.057Z,29.89
2022-08-05T06:54:04.012Z,30.83
2022-08-05T06:56:33.421Z,31.85
2022-08-05T06:59:08.686Z,32.28
2022-08-05T07:01:40.556Z,32.73
2022-08-05T07:04:10.213Z,33.01
2022-08-05T07:06:37.862Z,32.48
2022-08-05T07:09:05.652Z,31.99
2022-08-05T07:11:36.800Z,31.53
2022-08-05T07:14:32.269Z,31.78
2022-08-05T07:18:00.824Z,32.26
2022-08-05T07:22:42.210Z,34.03
2022-08-05T07:25:55.552Z,34.51
2022-08-05T07:28:03.939Z,34.91
2022-08-05T07:30:38.733Z,35.07
2022-08-05T07:33:15.960Z,35.23
2022-08-05T07:36:04.410Z,35.41
2022-08-05T07:38:43.703Z,35.57
2022-08-05T07:42:13.354Z,35.74
2022-08-05T07:44:14.435Z,35.68
2022-08-05T07:46:49.673Z,35.38
2022-08-05T07:49:19.536Z,35.47
2022-08-05T07:51:53.023Z,35.97
2022-08-05T07:54:31.511Z,35.48
2022-08-05T07:57:23.649Z,35.60
2022-08-05T07:59:53.643Z,35.27
2022-08-05T08:02:30.825Z,35.19
2022-08-05T08:04:59.626Z,35.36
2022-08-05T08:07:28.514Z,35.39
2022-08-05T08:09:56.990Z,35.31
2022-08-05T08:12:33.475Z,35.22
2022-08-05T08:15:14.001Z,34.89
2022-08-05T08:17:52.308Z,34.47
2022-08-05T08:20:59.751Z,34.16
2022-08-05T08:23:59.839Z,33.70
2022-08-05T08:25:59.928Z,32.95
2022-08-05T08:28:36.964Z,32.14
2022-08-05T08:31:15.136Z,31.74
2022-08-05T08:33:45.681Z,31.29
2022-08-05T08:36:47.584Z,30.91
2022-08-05T08:39:02.171Z,30.70
2022-08-05T08:41:51.989Z,30.55
2022-08-05T08:45:23.563Z,30.31
2022-08-05T08:47:47.669Z,30.10
2022-08-05T08:50:31.807Z,30.03
2022-08-05T08:52:55.948Z,29.98
2022-08-05T08:56:01.877Z,29.68
2022-08-05T08:58:12.939Z,29.67
2022-08-05T09:00:42.653Z,29.61
2022-08-05T09:03:15.882Z,29.57
2022-08-05T09:06:09.259Z,29.62
2022-08-05T09:08:32.126Z,29.61
2022-08-05T09:10:59.843Z,29.60
2022-08-05T09:13:31.796Z,29.58
2022-08-05T09:16:16.737Z,29.53
2022-08-05T09:18:44.687Z,29.51
2022-08-05T09:21:20.604Z,29.55
2022-08-05T09:24:08.784Z,29.51
2022-08-05T09:26:37.931Z,29.44
2022-08-05T09:29:08.851Z,29.35
2022-08-05T09:32:41.002Z,29.20
2022-08-05T09:34:26.143Z,29.27
2022-08-05T09:36:56.221Z,29.30
2022-08-05T09:39:39.238Z,29.22
2022-08-05T09:42:23.583Z,29.24
2022-08-05T09:44:56.691Z,29.29
2022-08-05T09:47:35.197Z,29.13
2022-08-05T09:50:38.042Z,29.12
2022-08-05T09:53:07.336Z,29.17
2022-08-05T09:55:56.403Z,29.18
2022-08-05T09:58:25.678Z,29.03
2022-08-05T10:01:14.844Z,28.98
2022-08-05T10:04:03.657Z,28.99
2022-08-05T10:06:32.409Z,29.04
2022-08-05T10:09:27.490Z,28.99
2022-08-05T10:12:30.338Z,29.05
2022-08-05T10:15:16.228Z,29.09
2022-08-05T10:18:01.713Z,29.14
2022-08-05T10:20:31.531Z,29.20
2022-08-05T10:23:01.889Z,29.19
2022-08-05T10:25:31.159Z,29.22
2022-08-05T10:28:13.360Z,29.21
2022-08-05T10:32:49.186Z,29.17
2022-08-05T10:33:35.193Z,29.20
2022-08-05T10:36:04.580Z,29.12
2022-08-05T10:38:34.208Z,29.10
2022-08-05T10:41:25.914Z,29.15
2022-08-05T10:44:18.407Z,29.12
2022-08-05T10:46:50.558Z,29.10
2022-08-05T10:49:26.789Z,29.16
2022-08-05T10:52:00.463Z,29.10
2022-08-05T10:55:02.448Z,29.14
2022-08-05T10:57:32.032Z,29.17
2022-08-05T11:00:24.375Z,29.14
2022-08-05T11:03:24.233Z,29.11
2022-08-05T11:06:14.618Z,29.15
2022-08-05T11:09:32.056Z,29.12
2022-08-05T11:12:27.154Z,29.17
2022-08-05T11:15:19.928Z,29.18
2022-08-05T11:17:58.675Z,29.21
2022-08-05T11:20:39.244Z,29.23
2022-08-05T11:24:02.742Z,29.17
2022-08-05T11:26:28.954Z,29.19
2022-08-05T11:29:12.789Z,29.19
2022-08-05T11:31:54.138Z,29.24
2022-08-05T11:34:39.505Z,29.24
2022-08-05T11:38:36.741Z,29.25
2022-08-05T11:40:00.721Z,29.24
2022-08-05T11:42:37.911Z,29.29
2022-08-05T11:45:23.430Z,29.25
2022-08-05T11:47:57.947Z,29.23
2022-08-05T11:50:26.666Z,29.26
2022-08-05T11:52:57.962Z,29.23
2022-08-05T11:55:32.014Z,29.20
2022-08-05T11:58:10.385Z,29.13
2022-08-05T12:00:41.547Z,29.17
2022-08-05T12:03:28.386Z,29.20
2022-08-05T12:06:03.089Z,29.24
2022-08-05T12:08:39.470Z,29.24
2022-08-05T12:11:23.052Z,29.24
2022-08-05T12:14:10.099Z,29.28
2022-08-05T12:16:40.217Z,29.28
2022-08-05T12:20:25.629Z,29.33
2022-08-05T12:22:01.693Z,29.27
2022-08-05T12:24:29.982Z,29.25
2022-08-05T12:26:57.756Z,29.20
2022-08-05T12:29:27.450Z,29.19
2022-08-05T12:31:58.490Z,29.20
2022-08-05T12:34:37.022Z,29.21
2022-08-05T12:37:16.991Z,29.22
2022-08-05T12:39:51.044Z,29.16
2022-08-05T12:42:20.946Z,29.18
2022-08-05T12:44:49.199Z,29.09
2022-08-05T12:47:30.942Z,29.04
2022-08-05T12:50:03.629Z,29.04
2022-08-05T12:52:42.027Z,29.02
2022-08-05T12:55:22.323Z,28.98
2022-08-05T12:58:49.608Z,28.94
2022-08-05T13:02:03.767Z,28.95
2022-08-05T13:03:34.356Z,28.98
2022-08-05T13:06:08.098Z,28.99
2022-08-05T13:08:40.311Z,28.94
2022-08-05T13:11:08.538Z,28.94
2022-08-05T13:14:06.642Z,28.94
2022-08-05T13:16:27.821Z,28.91
2022-08-05T13:18:57.968Z,28.98
2022-08-05T13:21:28.489Z,28.86
2022-08-05T13:24:51.427Z,28.90
2022-08-05T13:27:04.913Z,28.85
2022-08-05T13:29:38.936Z,28.87
2022-08-05T13:32:33.081Z,28.92
2022-08-05T13:35:03.071Z,28.88
2022-08-05T13:37:34.502Z,28.87
2022-08-05T13:40:16.358Z,28.85
2022-08-05T13:42:47.935Z,28.86
2022-08-05T13:45:23.425Z,28.91
2022-08-05T13:48:08.452Z,28.89
2022-08-05T13:50:37.522Z,28.88
2022-08-05T13:53:05.060Z,28.86
2022-08-05T13:55:42.004Z,28.86
2022-08-05T13:58:30.205Z,28.85
2022-08-05T14:00:58.990Z,28.85
2022-08-05T14:03:28.327Z,28.78
2022-08-05T14:06:25.450Z,28.73
2022-08-05T14:08:44.291Z,28.64
2022-08-05T14:11:20.709Z,28.65
2022-08-05T14:13:49.600Z,28.60
2022-08-05T14:16:23.168Z,28.63
2022-08-05T14:18:51.370Z,28.64
2022-08-05T14:22:08.435Z,28.73
2022-08-05T14:24:09.934Z,28.73
2022-08-05T14:26:56.427Z,28.72
2022-08-05T14:29:26.280Z,28.77
2022-08-05T14:32:02.910Z,28.84
2022-08-05T14:34:40.814Z,28.91
2022-08-05T14:37:09.364Z,28.97
2022-08-05T14:39:49.545Z,28.96
2022-08-05T14:42:25.020Z,28.98
2022-08-05T14:44:52.930Z,28.98
2022-08-05T14:48:03.602Z,28.98
2022-08-05T14:50:18.514Z,28.96
2022-08-05T14:52:53.623Z,28.88
2022-08-05T14:55:28.773Z,28.83
2022-08-05T14:58:11.112Z,28.83
2022-08-05T15:00:59.417Z,28.75
2022-08-05T15:03:34.075Z,28.74
2022-08-05T15:06:14.797Z,28.69
2022-08-05T15:08:59.725Z,28.77
2022-08-05T15:11:52.745Z,28.70
2022-08-05T15:14:34.734Z,28.74
2022-08-05T15:17:14.639Z,28.74
2022-08-05T15:19:57.507Z,28.81
2022-08-05T15:22:27.120Z,28.76
2022-08-05T15:24:56.878Z,28.75
2022-08-05T15:27:25.458Z,28.71
2022-08-05T15:29:56.601Z,28.75
2022-08-05T15:32:28.585Z,28.76
2022-08-05T15:34:57.463Z,28.74
2022-08-05T15:38:32.815Z,28.71
2022-08-05T15:41:04.233Z,28.68
2022-08-05T15:43:12.581Z,28.76
2022-08-05T15:45:46.917Z,28.75
2022-08-05T15:48:15.344Z,28.71
2022-08-05T15:50:43.568Z,28.67
2022-08-05T15:53:14.507Z,28.64
2022-08-05T15:56:02.333Z,28.58
2022-08-05T15:58:37.064Z,28.52
2022-08-05T16:01:16.424Z,28.53
2022-08-05T16:03:50.385Z,28.60
2022-08-05T16:06:19.586Z,28.52
2022-08-05T16:08:50.855Z,28.50
2022-08-05T16:11:42.586Z,28.45
2022-08-05T16:14:09.157Z,28.40
2022-08-05T16:16:37.156Z,28.40
2022-08-05T16:19:05.193Z,28.39
2022-08-05T16:21:58.563Z,28.40
2022-08-05T16:24:36.122Z,28.33
2022-08-05T16:27:08.459Z,28.31
2022-08-05T16:29:37.318Z,28.28
2022-08-05T16:32:09.756Z,28.26
2022-08-05T16:34:39.390Z,28.26
2022-08-05T16:38:00.400Z,28.22
2022-08-05T16:40:06.496Z,28.20
2022-08-05T16:42:36.018Z,28.17
2022-08-05T16:46:02.802Z,28.14
2022-08-05T16:47:54.399Z,28.12
2022-08-05T16:50:25.189Z,28.07
2022-08-05T16:52:52.831Z,28.03
2022-08-05T16:55:24.617Z,28.01
2022-08-05T16:57:53.392Z,28.00
2022-08-05T17:00:34.010Z,28.00
2022-08-05T17:03:03.981Z,27.91
2022-08-05T17:05:41.035Z,27.90
2022-08-05T17:08:13.393Z,27.88
2022-08-05T17:10:41.765Z,27.88
2022-08-05T17:13:17.115Z,27.87
2022-08-05T17:15:55.613Z,27.87
2022-08-05T17:18:35.185Z,27.85
2022-08-05T17:21:02.938Z,27.77
2022-08-05T17:24:05.103Z,27.75
2022-08-05T17:26:20.114Z,27.72
2022-08-05T17:28:47.751Z,27.71
2022-08-05T17:31:24.711Z,27.68
2022-08-05T17:34:03.248Z,27.65
2022-08-05T17:36:36.077Z,27.59
2022-08-05T17:39:23.771Z,27.61
2022-08-05T17:42:17.768Z,27.54
2022-08-05T17:44:39.294Z,27.55
2022-08-05T17:47:06.918Z,27.50
2022-08-05T17:49:51.961Z,27.45
2022-08-05T17:52:22.661Z,27.38
2022-08-05T17:54:59.273Z,27.33
2022-08-05T17:57:27.921Z,27.35
2022-08-05T18:00:03.611Z,27.30
2022-08-05T18:02:34.416Z,27.25
2022-08-05T18:05:06.464Z,27.22
2022-08-05T18:07:41.332Z,27.16
2022-08-05T18:10:11.709Z,27.13
2022-08-05T18:12:48.807Z,27.13
2022-08-05T18:15:16.527Z,27.08
2022-08-05T18:17:59.599Z,27.09
2022-08-05T18:20:32.541Z,27.01
2022-08-05T18:23:09.391Z,26.96
2022-08-05T18:25:44.858Z,26.93
2022-08-05T18:28:16.305Z,26.92
2022-08-05T18:30:51.052Z,26.92
2022-08-05T18:33:22.991Z,26.90
2022-08-05T18:36:04.075Z,26.82
2022-08-05T18:38:36.298Z,26.82
2022-08-05T18:41:55.476Z,26.81
2022-08-05T18:43:53.461Z,26.76
2022-08-05T18:46:21.703Z,26.72
2022-08-05T18:48:54.010Z,26.72
2022-08-05T18:52:04.714Z,26.66
2022-08-05T18:54:31.355Z,26.65
2022-08-05T18:57:01.074Z,26.64
2022-08-05T18:59:43.352Z,26.52
2022-08-05T19:02:26.938Z,26.48
2022-08-05T19:05:02.642Z,26.47
2022-08-05T19:07:50.134Z,26.48
2022-08-05T19:10:26.481Z,26.44
2022-08-05T19:12:57.149Z,26.34
2022-08-05T19:15:57.237Z,26.33
2022-08-05T19:18:21.929Z,26.27
2022-08-05T19:20:54.708Z,26.23
2022-08-05T19:24:05.457Z,26.21
2022-08-05T19:26:11.900Z,26.16
2022-08-05T19:28:42.291Z,26.15
2022-08-05T19:31:13.269Z,26.09
2022-08-05T19:33:47.895Z,26.11
2022-08-05T19:36:29.329Z,26.03
2022-08-05T19:39:01.486Z,26.03
2022-08-05T19:41:34.710Z,26.04
2022-08-05T19:44:19.307Z,25.91
2022-08-05T19:46:47.475Z,25.90
2022-08-05T19:49:18.554Z,25.82
2022-08-05T19:52:08.324Z,25.86
2022-08-05T19:54:35.453Z,25.82
2022-08-05T19:57:08.631Z,25.79
2022-08-05T19:59:55.577Z,25.78
2022-08-05T20:02:31.269Z,25.70
2022-08-05T20:04:59.729Z,25.68
2022-08-05T20:07:46.887Z,25.60
2022-08-05T20:10:17.416Z,25.68
2022-08-05T20:12:49.249Z,25.54
2022-08-05T20:15:23.011Z,25.48
2022-08-05T20:18:10.017Z,25.52
2022-08-05T20:20:56.733Z,25.50
2022-08-05T20:23:40.480Z,25.42
2022-08-05T20:26:15.434Z,25.36
2022-08-05T20:28:49.785Z,25.38
2022-08-05T20:31:21.867Z,25.33
2022-08-05T20:33:56.152Z,25.24
2022-08-05T20:36:24.384Z,25.26
2022-08-05T20:38:57.713Z,25.18
2022-08-05T20:41:43.537Z,25.20
2022-08-05T20:44:18.566Z,25.22
2022-08-05T20:46:58.003Z,25.21
2022-08-05T20:49:25.887Z,25.11
2022-08-05T20:51:55.308Z,25.10
2022-08-05T20:54:42.916Z,25.14
2022-08-05T20:57:42.095Z,25.12
2022-08-05T21:00:20.639Z,25.05
2022-08-05T21:02:56.942Z,24.98
2022-08-05T21:05:25.151Z,24.92
2022-08-05T21:07:52.842Z,24.92
2022-08-05T21:10:21.574Z,24.90
2022-08-05T21:13:08.926Z,24.90
2022-08-05T21:15:37.044Z,24.85
2022-08-05T21:18:05.088Z,24.68
2022-08-05T21:20:34.174Z,24.75
2022-08-05T21:23:02.984Z,24.67
2022-08-05T21:28:03.299Z,24.52
2022-08-05T21:30:31.730Z,24.50
2022-08-05T21:33:01.772Z,24.44
2022-08-05T21:35:55.515Z,24.45
2022-08-05T21:38:19.183Z,24.38
2022-08-05T21:40:46.785Z,24.40
2022-08-05T21:43:17.685Z,24.32
2022-08-05T21:45:57.882Z,24.27
2022-08-05T21:48:28.929Z,24.23
2022-08-05T21:50:57.328Z,24.18
2022-08-05T21:53:27.749Z,24.14
2022-08-05T21:56:09.744Z,24.19
2022-08-05T21:58:48.440Z,24.17
2022-08-05T22:01:26.346Z,24.18
2022-08-05T22:03:54.242Z,24.26
2022-08-05T22:06:35.095Z,24.17
2022-08-05T22:09:15.066Z,24.13
2022-08-05T22:11:46.903Z,24.08
2022-08-05T22:14:33.427Z,24.15
2022-08-05T22:17:03.780Z,24.11
2022-08-05T22:20:02.015Z,24.02
2022-08-05T22:22:27.812Z,24.04
2022-08-05T22:25:18.109Z,23.98
2022-08-05T22:28:08.220Z,23.87
2022-08-05T22:30:53.534Z,23.85
2022-08-05T22:33:57.945Z,23.85
2022-08-05T22:36:14.610Z,23.87
2022-08-05T22:38:48.203Z,23.90
2022-08-05T22:41:26.280Z,23.88
2022-08-05T22:44:08.739Z,23.79
2022-08-05T22:46:39.439Z,23.73
2022-08-05T22:49:46.237Z,23.70
2022-08-05T22:52:04.364Z,23.69
2022-08-05T22:54:36.689Z,23.66
2022-08-05T22:57:07.430Z,23.62
2022-08-05T22:59:44.066Z,23.57
2022-08-05T23:02:17.607Z,23.59
2022-08-05T23:04:52.210Z,23.47
2022-08-05T23:07:22.737Z,23.47
2022-08-05T23:09:58.471Z,23.50
2022-08-05T23:12:32.355Z,23.45
2022-08-05T23:15:03.044Z,23.43
2022-08-05T23:17:37.546Z,23.42
2022-08-05T23:20:20.876Z,23.44
2022-08-05T23:22:56.104Z,23.39
2022-08-05T23:25:51.003Z,23.44
2022-08-05T23:28:12.204Z,23.37
2022-08-05T23:30:43.591Z,23.36
2022-08-05T23:33:22.026Z,23.27
2022-08-05T23:35:56.165Z,23.29
2022-08-05T23:38:26.117Z,23.27
2022-08-05T23:40:54.383Z,23.25
2022-08-05T23:43:24.885Z,23.19
2022-08-05T23:46:20.037Z,23.16
2022-08-05T23:49:00.746Z,23.12
2022-08-05T23:51:52.714Z,23.11
2022-08-05T23:54:30.355Z,23.16
2022-08-05T23:57:05.028Z,23.11
2022-08-05T23:59:37.648Z,23.13
